sensor_id;sensor_type;location;lat;lon;timestamp;P1;durP1;ratioP1;P2;durP2;ratioP2
29984;SDS011;17387;42.690;23.328;2022-07-24T00:02:18;23.60;;;10.55;;
29984;SDS011;17387;42.690;23.328;2022-07-24T00:04:43;18.00;;;9.93;;
29984;SDS011;17387;42.690;23.328;2022-07-24T00:07:08;19.23;;;10.02;;
29984;SDS011;17387;42.690;23.328;2022-07-24T00:09:34;18.83;;;9.70;;
29984;SDS011;17387;42.690;23.328;2022-07-24T00:11:59;20.92;;;9.50;;
29984;SDS011;17387;42.690;23.328;2022-07-24T00:14:25;20.67;;;10.23;;
29984;SDS011;17387;42.690;23.328;2022-07-24T00:16:51;19.73;;;9.75;;
29984;SDS011;17387;42.690;23.328;2022-07-24T00:19:16;13.90;;;9.90;;
29984;SDS011;17387;42.690;23.328;2022-07-24T00:21:42;18.17;;;9.52;;
29984;SDS011;17387;42.690;23.328;2022-07-24T00:24:07;18.67;;;10.18;;
29984;SDS011;17387;42.690;23.328;2022-07-24T00:26:33;20.50;;;9.50;;
29984;SDS011;17387;42.690;23.328;2022-07-24T00:28:59;16.25;;;9.55;;
29984;SDS011;17387;42.690;23.328;2022-07-24T00:31:25;20.02;;;9.70;;
29984;SDS011;17387;42.690;23.328;2022-07-24T00:33:50;24.38;;;9.60;;
29984;SDS011;17387;42.690;23.328;2022-07-24T00:36:16;20.70;;;10.15;;
29984;SDS011;17387;42.690;23.328;2022-07-24T00:38:42;17.60;;;9.82;;
29984;SDS011;17387;42.690;23.328;2022-07-24T00:41:07;16.70;;;10.10;;
29984;SDS011;17387;42.690;23.328;2022-07-24T00:43:33;17.25;;;9.82;;
29984;SDS011;17387;42.690;23.328;2022-07-24T00:45:58;20.48;;;10.43;;
29984;SDS011;17387;42.690;23.328;2022-07-24T00:48:24;20.58;;;9.35;;
29984;SDS011;17387;42.690;23.328;2022-07-24T00:50:49;22.40;;;10.05;;
29984;SDS011;17387;42.690;23.328;2022-07-24T00:53:15;18.55;;;9.65;;
29984;SDS011;17387;42.690;23.328;2022-07-24T00:55:40;19.98;;;9.88;;
29984;SDS011;17387;42.690;23.328;2022-07-24T00:58:07;16.02;;;9.70;;
29984;SDS011;17387;42.690;23.328;2022-07-24T01:00:33;15.13;;;9.30;;
29984;SDS011;17387;42.690;23.328;2022-07-24T01:02:59;20.17;;;11.05;;
29984;SDS011;17387;42.690;23.328;2022-07-24T01:05:24;15.05;;;10.10;;
29984;SDS011;17387;42.690;23.328;2022-07-24T01:07:50;22.23;;;10.60;;
29984;SDS011;17387;42.690;23.328;2022-07-24T01:10:15;17.67;;;9.50;;
29984;SDS011;17387;42.690;23.328;2022-07-24T01:12:41;19.08;;;9.93;;
29984;SDS011;17387;42.690;23.328;2022-07-24T01:15:08;19.23;;;9.75;;
29984;SDS011;17387;42.690;23.328;2022-07-24T01:17:35;19.27;;;9.35;;
29984;SDS011;17387;42.690;23.328;2022-07-24T01:20:03;16.75;;;9.55;;
29984;SDS011;17387;42.690;23.328;2022-07-24T01:22:29;18.98;;;9.00;;
29984;SDS011;17387;42.690;23.328;2022-07-24T01:24:55;13.57;;;8.95;;
29984;SDS011;17387;42.690;23.328;2022-07-24T01:27:21;21.58;;;9.32;;
29984;SDS011;17387;42.690;23.328;2022-07-24T01:29:48;17.75;;;9.40;;
29984;SDS011;17387;42.690;23.328;2022-07-24T01:32:13;15.52;;;9.07;;
29984;SDS011;17387;42.690;23.328;2022-07-24T01:34:39;19.88;;;9.05;;
29984;SDS011;17387;42.690;23.328;2022-07-24T01:37:05;16.67;;;9.48;;
29984;SDS011;17387;42.690;23.328;2022-07-24T01:39:31;18.85;;;10.23;;
29984;SDS011;17387;42.690;23.328;2022-07-24T01:41:56;19.42;;;9.20;;
29984;SDS011;17387;42.690;23.328;2022-07-24T01:44:22;16.52;;;9.27;;
29984;SDS011;17387;42.690;23.328;2022-07-24T01:46:47;17.65;;;9.25;;
29984;SDS011;17387;42.690;23.328;2022-07-24T01:49:13;16.00;;;9.45;;
29984;SDS011;17387;42.690;23.328;2022-07-24T01:51:39;16.13;;;9.02;;
29984;SDS011;17387;42.690;23.328;2022-07-24T01:54:04;17.58;;;9.80;;
29984;SDS011;17387;42.690;23.328;2022-07-24T01:56:30;21.30;;;9.73;;
29984;SDS011;17387;42.690;23.328;2022-07-24T01:58:56;19.13;;;10.15;;
29984;SDS011;17387;42.690;23.328;2022-07-24T02:01:22;20.05;;;10.05;;
29984;SDS011;17387;42.690;23.328;2022-07-24T02:03:47;17.15;;;9.48;;
29984;SDS011;17387;42.690;23.328;2022-07-24T02:06:13;15.07;;;9.45;;
29984;SDS011;17387;42.690;23.328;2022-07-24T02:08:39;20.48;;;9.80;;
29984;SDS011;17387;42.690;23.328;2022-07-24T02:11:04;21.48;;;9.93;;
29984;SDS011;17387;42.690;23.328;2022-07-24T02:13:30;18.17;;;10.70;;
29984;SDS011;17387;42.690;23.328;2022-07-24T02:15:55;16.27;;;9.20;;
29984;SDS011;17387;42.690;23.328;2022-07-24T02:18:21;19.45;;;10.55;;
29984;SDS011;17387;42.690;23.328;2022-07-24T02:20:47;21.65;;;9.70;;
29984;SDS011;17387;42.690;23.328;2022-07-24T02:23:13;19.10;;;9.95;;
29984;SDS011;17387;42.690;23.328;2022-07-24T02:25:42;19.48;;;9.98;;
29984;SDS011;17387;42.690;23.328;2022-07-24T02:28:10;22.48;;;10.52;;
29984;SDS011;17387;42.690;23.328;2022-07-24T02:30:36;16.95;;;9.82;;
29984;SDS011;17387;42.690;23.328;2022-07-24T02:33:02;16.75;;;10.13;;
29984;SDS011;17387;42.690;23.328;2022-07-24T02:35:28;17.27;;;10.20;;
29984;SDS011;17387;42.690;23.328;2022-07-24T02:37:53;19.67;;;10.45;;
29984;SDS011;17387;42.690;23.328;2022-07-24T02:40:19;18.85;;;10.05;;
29984;SDS011;17387;42.690;23.328;2022-07-24T02:42:44;19.33;;;10.00;;
29984;SDS011;17387;42.690;23.328;2022-07-24T02:45:10;17.80;;;9.90;;
29984;SDS011;17387;42.690;23.328;2022-07-24T02:47:38;21.17;;;9.68;;
29984;SDS011;17387;42.690;23.328;2022-07-24T02:50:12;18.38;;;10.02;;
29984;SDS011;17387;42.690;23.328;2022-07-24T02:52:37;16.17;;;9.68;;
29984;SDS011;17387;42.690;23.328;2022-07-24T02:55:03;18.00;;;9.90;;
29984;SDS011;17387;42.690;23.328;2022-07-24T02:57:29;21.27;;;10.50;;
29984;SDS011;17387;42.690;23.328;2022-07-24T02:59:54;20.52;;;10.15;;
29984;SDS011;17387;42.690;23.328;2022-07-24T03:02:20;19.70;;;9.65;;
29984;SDS011;17387;42.690;23.328;2022-07-24T03:04:45;18.65;;;10.07;;
29984;SDS011;17387;42.690;23.328;2022-07-24T03:07:11;21.05;;;10.52;;
29984;SDS011;17387;42.690;23.328;2022-07-24T03:09:37;19.73;;;10.70;;
29984;SDS011;17387;42.690;23.328;2022-07-24T03:12:02;19.23;;;9.80;;
29984;SDS011;17387;42.690;23.328;2022-07-24T03:14:28;19.05;;;10.38;;
29984;SDS011;17387;42.690;23.328;2022-07-24T03:16:53;22.60;;;10.32;;
29984;SDS011;17387;42.690;23.328;2022-07-24T03:19:18;24.70;;;11.15;;
29984;SDS011;17387;42.690;23.328;2022-07-24T03:21:44;20.75;;;11.10;;
29984;SDS011;17387;42.690;23.328;2022-07-24T03:24:09;20.15;;;10.45;;
29984;SDS011;17387;42.690;23.328;2022-07-24T03:26:34;16.55;;;9.95;;
29984;SDS011;17387;42.690;23.328;2022-07-24T03:29:00;20.52;;;9.98;;
29984;SDS011;17387;42.690;23.328;2022-07-24T03:31:25;23.27;;;10.65;;
29984;SDS011;17387;42.690;23.328;2022-07-24T03:33:51;16.42;;;9.75;;
29984;SDS011;17387;42.690;23.328;2022-07-24T03:36:16;16.55;;;10.57;;
29984;SDS011;17387;42.690;23.328;2022-07-24T03:38:41;15.55;;;10.25;;
29984;SDS011;17387;42.690;23.328;2022-07-24T03:41:07;20.92;;;10.60;;
29984;SDS011;17387;42.690;23.328;2022-07-24T03:43:32;17.73;;;10.23;;
29984;SDS011;17387;42.690;23.328;2022-07-24T03:45:58;17.60;;;10.68;;
29984;SDS011;17387;42.690;23.328;2022-07-24T03:48:23;20.23;;;9.98;;
29984;SDS011;17387;42.690;23.328;2022-07-24T03:50:48;18.55;;;10.30;;
29984;SDS011;17387;42.690;23.328;2022-07-24T03:53:14;20.38;;;10.65;;
29984;SDS011;17387;42.690;23.328;2022-07-24T03:55:39;18.17;;;10.40;;
29984;SDS011;17387;42.690;23.328;2022-07-24T03:58:05;18.38;;;10.68;;
29984;SDS011;17387;42.690;23.328;2022-07-24T04:00:30;17.10;;;10.18;;
29984;SDS011;17387;42.690;23.328;2022-07-24T04:02:56;20.70;;;10.85;;
29984;SDS011;17387;42.690;23.328;2022-07-24T04:05:21;20.83;;;11.15;;
29984;SDS011;17387;42.690;23.328;2022-07-24T04:07:47;25.83;;;11.43;;
29984;SDS011;17387;42.690;23.328;2022-07-24T04:10:12;18.58;;;11.25;;
29984;SDS011;17387;42.690;23.328;2022-07-24T04:12:38;19.75;;;12.02;;
29984;SDS011;17387;42.690;23.328;2022-07-24T04:15:03;23.10;;;11.35;;
29984;SDS011;17387;42.690;23.328;2022-07-24T04:17:29;16.38;;;10.80;;
29984;SDS011;17387;42.690;23.328;2022-07-24T04:19:55;19.17;;;10.93;;
29984;SDS011;17387;42.690;23.328;2022-07-24T04:22:20;23.42;;;11.90;;
29984;SDS011;17387;42.690;23.328;2022-07-24T04:24:46;22.40;;;11.38;;
29984;SDS011;17387;42.690;23.328;2022-07-24T04:27:11;21.80;;;10.85;;
29984;SDS011;17387;42.690;23.328;2022-07-24T04:29:37;18.73;;;10.80;;
29984;SDS011;17387;42.690;23.328;2022-07-24T04:32:02;19.55;;;10.50;;
29984;SDS011;17387;42.690;23.328;2022-07-24T04:34:28;19.05;;;10.93;;
29984;SDS011;17387;42.690;23.328;2022-07-24T04:36:53;26.23;;;11.10;;
29984;SDS011;17387;42.690;23.328;2022-07-24T04:39:19;14.82;;;10.35;;
29984;SDS011;17387;42.690;23.328;2022-07-24T04:41:44;18.10;;;10.02;;
29984;SDS011;17387;42.690;23.328;2022-07-24T04:44:10;19.98;;;10.82;;
29984;SDS011;17387;42.690;23.328;2022-07-24T04:46:36;18.10;;;10.98;;
29984;SDS011;17387;42.690;23.328;2022-07-24T04:49:01;16.27;;;10.70;;
29984;SDS011;17387;42.690;23.328;2022-07-24T04:51:27;19.30;;;11.05;;
29984;SDS011;17387;42.690;23.328;2022-07-24T04:53:52;19.08;;;10.60;;
29984;SDS011;17387;42.690;23.328;2022-07-24T04:56:21;18.38;;;10.60;;
29984;SDS011;17387;42.690;23.328;2022-07-24T04:58:46;17.50;;;10.18;;
29984;SDS011;17387;42.690;23.328;2022-07-24T05:01:13;24.40;;;11.38;;
29984;SDS011;17387;42.690;23.328;2022-07-24T05:03:38;19.13;;;10.98;;
29984;SDS011;17387;42.690;23.328;2022-07-24T05:06:04;24.70;;;10.57;;
29984;SDS011;17387;42.690;23.328;2022-07-24T05:08:29;20.25;;;10.45;;
29984;SDS011;17387;42.690;23.328;2022-07-24T05:10:55;20.65;;;11.32;;
29984;SDS011;17387;42.690;23.328;2022-07-24T05:13:20;21.30;;;10.80;;
29984;SDS011;17387;42.690;23.328;2022-07-24T05:15:46;23.15;;;10.75;;
29984;SDS011;17387;42.690;23.328;2022-07-24T05:18:11;17.80;;;11.45;;
29984;SDS011;17387;42.690;23.328;2022-07-24T05:20:37;19.42;;;11.48;;
29984;SDS011;17387;42.690;23.328;2022-07-24T05:23:02;21.45;;;11.55;;
29984;SDS011;17387;42.690;23.328;2022-07-24T05:25:28;17.45;;;11.27;;
29984;SDS011;17387;42.690;23.328;2022-07-24T05:27:53;25.08;;;11.60;;
29984;SDS011;17387;42.690;23.328;2022-07-24T05:30:19;20.50;;;10.75;;
29984;SDS011;17387;42.690;23.328;2022-07-24T05:32:44;21.90;;;11.68;;
29984;SDS011;17387;42.690;23.328;2022-07-24T05:35:10;22.35;;;11.05;;
29984;SDS011;17387;42.690;23.328;2022-07-24T05:37:36;25.75;;;12.65;;
29984;SDS011;17387;42.690;23.328;2022-07-24T05:40:02;21.83;;;11.35;;
29984;SDS011;17387;42.690;23.328;2022-07-24T05:42:28;23.40;;;11.65;;
29984;SDS011;17387;42.690;23.328;2022-07-24T05:44:53;19.50;;;11.32;;
29984;SDS011;17387;42.690;23.328;2022-07-24T05:47:19;25.63;;;12.18;;
29984;SDS011;17387;42.690;23.328;2022-07-24T05:49:44;22.40;;;12.23;;
29984;SDS011;17387;42.690;23.328;2022-07-24T05:52:09;19.50;;;11.88;;
29984;SDS011;17387;42.690;23.328;2022-07-24T05:54:35;23.02;;;11.63;;
29984;SDS011;17387;42.690;23.328;2022-07-24T05:57:01;28.77;;;11.65;;
29984;SDS011;17387;42.690;23.328;2022-07-24T05:59:26;24.05;;;12.15;;
29984;SDS011;17387;42.690;23.328;2022-07-24T06:01:52;27.45;;;11.57;;
29984;SDS011;17387;42.690;23.328;2022-07-24T06:04:17;22.38;;;11.70;;
29984;SDS011;17387;42.690;23.328;2022-07-24T06:06:42;59.97;;;27.38;;
29984;SDS011;17387;42.690;23.328;2022-07-24T06:09:08;70.97;;;35.30;;
29984;SDS011;17387;42.690;23.328;2022-07-24T06:11:33;17.55;;;11.93;;
29984;SDS011;17387;42.690;23.328;2022-07-24T06:13:59;17.55;;;11.82;;
29984;SDS011;17387;42.690;23.328;2022-07-24T06:16:24;17.95;;;11.48;;
29984;SDS011;17387;42.690;23.328;2022-07-24T06:18:49;27.80;;;15.05;;
29984;SDS011;17387;42.690;23.328;2022-07-24T06:21:15;18.63;;;12.18;;
29984;SDS011;17387;42.690;23.328;2022-07-24T06:23:40;21.48;;;11.88;;
29984;SDS011;17387;42.690;23.328;2022-07-24T06:26:06;16.00;;;11.18;;
29984;SDS011;17387;42.690;23.328;2022-07-24T06:28:31;26.02;;;12.25;;
29984;SDS011;17387;42.690;23.328;2022-07-24T06:30:57;22.30;;;12.20;;
29984;SDS011;17387;42.690;23.328;2022-07-24T06:33:23;19.85;;;11.77;;
29984;SDS011;17387;42.690;23.328;2022-07-24T06:35:48;19.20;;;12.25;;
29984;SDS011;17387;42.690;23.328;2022-07-24T06:38:13;22.77;;;11.73;;
29984;SDS011;17387;42.690;23.328;2022-07-24T06:40:41;18.90;;;11.88;;
29984;SDS011;17387;42.690;23.328;2022-07-24T06:43:06;36.70;;;23.42;;
29984;SDS011;17387;42.690;23.328;2022-07-24T06:45:32;24.35;;;12.18;;
29984;SDS011;17387;42.690;23.328;2022-07-24T06:48:00;23.25;;;12.43;;
29984;SDS011;17387;42.690;23.328;2022-07-24T06:50:26;19.90;;;11.65;;
29984;SDS011;17387;42.690;23.328;2022-07-24T06:52:52;22.23;;;12.20;;
29984;SDS011;17387;42.690;23.328;2022-07-24T06:55:18;22.38;;;12.70;;
29984;SDS011;17387;42.690;23.328;2022-07-24T06:57:44;25.05;;;12.50;;
29984;SDS011;17387;42.690;23.328;2022-07-24T07:00:09;23.70;;;12.02;;
29984;SDS011;17387;42.690;23.328;2022-07-24T07:02:36;22.27;;;11.70;;
29984;SDS011;17387;42.690;23.328;2022-07-24T07:05:03;24.48;;;12.80;;
29984;SDS011;17387;42.690;23.328;2022-07-24T07:07:29;35.08;;;20.23;;
29984;SDS011;17387;42.690;23.328;2022-07-24T07:09:55;22.67;;;11.68;;
29984;SDS011;17387;42.690;23.328;2022-07-24T07:12:21;22.00;;;11.82;;
29984;SDS011;17387;42.690;23.328;2022-07-24T07:14:47;24.98;;;11.80;;
29984;SDS011;17387;42.690;23.328;2022-07-24T07:17:12;22.95;;;12.18;;
29984;SDS011;17387;42.690;23.328;2022-07-24T07:19:38;24.50;;;12.00;;
29984;SDS011;17387;42.690;23.328;2022-07-24T07:22:03;29.20;;;14.75;;
29984;SDS011;17387;42.690;23.328;2022-07-24T07:24:29;22.08;;;11.57;;
29984;SDS011;17387;42.690;23.328;2022-07-24T07:26:54;23.60;;;11.85;;
29984;SDS011;17387;42.690;23.328;2022-07-24T07:29:19;18.63;;;12.25;;
29984;SDS011;17387;42.690;23.328;2022-07-24T07:31:45;27.50;;;11.98;;
29984;SDS011;17387;42.690;23.328;2022-07-24T07:34:10;20.38;;;11.95;;
29984;SDS011;17387;42.690;23.328;2022-07-24T07:36:36;21.42;;;11.50;;
29984;SDS011;17387;42.690;23.328;2022-07-24T07:39:02;20.63;;;11.98;;
29984;SDS011;17387;42.690;23.328;2022-07-24T07:41:27;17.73;;;10.40;;
29984;SDS011;17387;42.690;23.328;2022-07-24T07:43:53;21.52;;;11.23;;
29984;SDS011;17387;42.690;23.328;2022-07-24T07:46:18;22.85;;;10.65;;
29984;SDS011;17387;42.690;23.328;2022-07-24T07:48:44;30.95;;;16.50;;
29984;SDS011;17387;42.690;23.328;2022-07-24T07:51:09;22.95;;;10.73;;
29984;SDS011;17387;42.690;23.328;2022-07-24T07:53:35;21.15;;;11.18;;
29984;SDS011;17387;42.690;23.328;2022-07-24T07:56:01;18.88;;;10.80;;
29984;SDS011;17387;42.690;23.328;2022-07-24T07:58:27;20.92;;;10.88;;
29984;SDS011;17387;42.690;23.328;2022-07-24T08:00:53;22.10;;;10.13;;
29984;SDS011;17387;42.690;23.328;2022-07-24T08:03:19;18.90;;;10.88;;
29984;SDS011;17387;42.690;23.328;2022-07-24T08:05:44;26.13;;;10.55;;
29984;SDS011;17387;42.690;23.328;2022-07-24T08:08:10;29.38;;;14.82;;
29984;SDS011;17387;42.690;23.328;2022-07-24T08:10:35;19.70;;;9.95;;
29984;SDS011;17387;42.690;23.328;2022-07-24T08:13:01;23.23;;;11.45;;
29984;SDS011;17387;42.690;23.328;2022-07-24T08:15:26;23.15;;;10.45;;
29984;SDS011;17387;42.690;23.328;2022-07-24T08:17:52;19.35;;;10.10;;
29984;SDS011;17387;42.690;23.328;2022-07-24T08:20:19;20.13;;;10.40;;
29984;SDS011;17387;42.690;23.328;2022-07-24T08:22:45;25.33;;;10.32;;
29984;SDS011;17387;42.690;23.328;2022-07-24T08:25:11;19.98;;;11.27;;
29984;SDS011;17387;42.690;23.328;2022-07-24T08:27:37;19.35;;;10.38;;
29984;SDS011;17387;42.690;23.328;2022-07-24T08:30:03;26.95;;;14.35;;
29984;SDS011;17387;42.690;23.328;2022-07-24T08:32:30;21.67;;;10.77;;
29984;SDS011;17387;42.690;23.328;2022-07-24T08:34:55;17.50;;;10.48;;
29984;SDS011;17387;42.690;23.328;2022-07-24T08:37:20;17.67;;;10.18;;
29984;SDS011;17387;42.690;23.328;2022-07-24T08:39:46;20.42;;;10.10;;
29984;SDS011;17387;42.690;23.328;2022-07-24T08:42:12;22.30;;;10.07;;
29984;SDS011;17387;42.690;23.328;2022-07-24T08:44:40;19.45;;;10.50;;
29984;SDS011;17387;42.690;23.328;2022-07-24T08:47:06;21.45;;;10.75;;
29984;SDS011;17387;42.690;23.328;2022-07-24T08:49:34;22.98;;;10.50;;
29984;SDS011;17387;42.690;23.328;2022-07-24T08:52:04;18.52;;;10.48;;
29984;SDS011;17387;42.690;23.328;2022-07-24T08:54:33;20.98;;;11.13;;
29984;SDS011;17387;42.690;23.328;2022-07-24T08:56:59;16.27;;;10.05;;
29984;SDS011;17387;42.690;23.328;2022-07-24T08:59:25;20.98;;;10.43;;
29984;SDS011;17387;42.690;23.328;2022-07-24T09:01:50;26.92;;;10.52;;
29984;SDS011;17387;42.690;23.328;2022-07-24T09:04:36;17.60;;;10.55;;
29984;SDS011;17387;42.690;23.328;2022-07-24T09:07:15;26.67;;;11.70;;
29984;SDS011;17387;42.690;23.328;2022-07-24T09:09:43;22.73;;;11.45;;
29984;SDS011;17387;42.690;23.328;2022-07-24T09:12:14;30.98;;;13.05;;
29984;SDS011;17387;42.690;23.328;2022-07-24T09:14:42;33.03;;;13.68;;
29984;SDS011;17387;42.690;23.328;2022-07-24T09:17:09;19.67;;;10.50;;
29984;SDS011;17387;42.690;23.328;2022-07-24T09:22:37;20.80;;;11.18;;
29984;SDS011;17387;42.690;23.328;2022-07-24T09:27:48;23.15;;;12.20;;
29984;SDS011;17387;42.690;23.328;2022-07-24T09:30:22;22.95;;;10.57;;
29984;SDS011;17387;42.690;23.328;2022-07-24T09:32:52;19.48;;;11.05;;
29984;SDS011;17387;42.690;23.328;2022-07-24T09:35:31;25.88;;;11.07;;
29984;SDS011;17387;42.690;23.328;2022-07-24T09:37:59;21.80;;;11.13;;
29984;SDS011;17387;42.690;23.328;2022-07-24T09:40:33;25.45;;;12.55;;
29984;SDS011;17387;42.690;23.328;2022-07-24T09:43:13;17.90;;;10.32;;
29984;SDS011;17387;42.690;23.328;2022-07-24T09:45:56;18.65;;;10.55;;
29984;SDS011;17387;42.690;23.328;2022-07-24T09:48:28;24.17;;;11.52;;
29984;SDS011;17387;42.690;23.328;2022-07-24T09:50:59;16.95;;;10.82;;
29984;SDS011;17387;42.690;23.328;2022-07-24T09:55:56;18.98;;;9.88;;
29984;SDS011;17387;42.690;23.328;2022-07-24T09:58:32;21.10;;;9.93;;
29984;SDS011;17387;42.690;23.328;2022-07-24T10:00:59;15.23;;;9.00;;
29984;SDS011;17387;42.690;23.328;2022-07-24T10:03:27;12.77;;;8.00;;
29984;SDS011;17387;42.690;23.328;2022-07-24T10:05:55;16.73;;;8.32;;
29984;SDS011;17387;42.690;23.328;2022-07-24T10:08:23;18.52;;;8.60;;
29984;SDS011;17387;42.690;23.328;2022-07-24T10:10:49;15.98;;;8.90;;
29984;SDS011;17387;42.690;23.328;2022-07-24T10:13:15;17.33;;;8.95;;
29984;SDS011;17387;42.690;23.328;2022-07-24T10:15:51;17.02;;;8.60;;
29984;SDS011;17387;42.690;23.328;2022-07-24T10:18:19;18.17;;;8.70;;
29984;SDS011;17387;42.690;23.328;2022-07-24T10:20:47;17.05;;;8.15;;
29984;SDS011;17387;42.690;23.328;2022-07-24T10:23:25;15.88;;;8.23;;
29984;SDS011;17387;42.690;23.328;2022-07-24T10:26:04;12.73;;;7.53;;
29984;SDS011;17387;42.690;23.328;2022-07-24T10:28:38;13.55;;;7.95;;
29984;SDS011;17387;42.690;23.328;2022-07-24T10:31:04;13.40;;;7.80;;
29984;SDS011;17387;42.690;23.328;2022-07-24T10:33:31;16.75;;;8.65;;
29984;SDS011;17387;42.690;23.328;2022-07-24T10:35:58;13.85;;;8.13;;
29984;SDS011;17387;42.690;23.328;2022-07-24T10:38:36;14.13;;;8.50;;
29984;SDS011;17387;42.690;23.328;2022-07-24T10:41:07;14.70;;;8.32;;
29984;SDS011;17387;42.690;23.328;2022-07-24T10:43:37;12.68;;;8.48;;
29984;SDS011;17387;42.690;23.328;2022-07-24T10:48:32;17.25;;;9.05;;
29984;SDS011;17387;42.690;23.328;2022-07-24T10:59:08;12.07;;;7.75;;
29984;SDS011;17387;42.690;23.328;2022-07-24T11:01:48;12.73;;;7.95;;
29984;SDS011;17387;42.690;23.328;2022-07-24T11:09:11;17.58;;;8.60;;
29984;SDS011;17387;42.690;23.328;2022-07-24T11:14:22;17.58;;;8.07;;
29984;SDS011;17387;42.690;23.328;2022-07-24T11:16:48;12.82;;;8.00;;
29984;SDS011;17387;42.690;23.328;2022-07-24T11:21:41;11.63;;;7.80;;
29984;SDS011;17387;42.690;23.328;2022-07-24T11:26:48;13.13;;;8.60;;
29984;SDS011;17387;42.690;23.328;2022-07-24T11:29:35;15.43;;;8.48;;
29984;SDS011;17387;42.690;23.328;2022-07-24T11:34:32;16.38;;;8.02;;
29984;SDS011;17387;42.690;23.328;2022-07-24T11:36:59;14.35;;;8.73;;
29984;SDS011;17387;42.690;23.328;2022-07-24T11:39:29;13.10;;;7.88;;
29984;SDS011;17387;42.690;23.328;2022-07-24T11:41:58;11.15;;;8.00;;
29984;SDS011;17387;42.690;23.328;2022-07-24T11:46:58;15.52;;;7.63;;
29984;SDS011;17387;42.690;23.328;2022-07-24T11:52:35;11.90;;;8.30;;
29984;SDS011;17387;42.690;23.328;2022-07-24T11:55:04;12.20;;;8.38;;
29984;SDS011;17387;42.690;23.328;2022-07-24T11:57:36;13.48;;;8.40;;
29984;SDS011;17387;42.690;23.328;2022-07-24T12:00:07;13.13;;;8.45;;
29984;SDS011;17387;42.690;23.328;2022-07-24T12:02:36;13.05;;;8.32;;
29984;SDS011;17387;42.690;23.328;2022-07-24T12:05:02;13.68;;;8.55;;
29984;SDS011;17387;42.690;23.328;2022-07-24T12:07:28;15.23;;;9.00;;
29984;SDS011;17387;42.690;23.328;2022-07-24T12:09:55;16.63;;;9.10;;
29984;SDS011;17387;42.690;23.328;2022-07-24T12:15:00;11.63;;;8.20;;
29984;SDS011;17387;42.690;23.328;2022-07-24T12:22:52;16.65;;;8.85;;
29984;SDS011;17387;42.690;23.328;2022-07-24T12:25:19;11.00;;;7.85;;
29984;SDS011;17387;42.690;23.328;2022-07-24T12:27:45;16.60;;;8.13;;
29984;SDS011;17387;42.690;23.328;2022-07-24T12:32:51;12.82;;;8.18;;
29984;SDS011;17387;42.690;23.328;2022-07-24T12:35:21;10.15;;;7.88;;
29984;SDS011;17387;42.690;23.328;2022-07-24T12:37:47;12.57;;;8.27;;
29984;SDS011;17387;42.690;23.328;2022-07-24T12:40:25;12.48;;;7.93;;
29984;SDS011;17387;42.690;23.328;2022-07-24T12:43:04;12.65;;;8.00;;
29984;SDS011;17387;42.690;23.328;2022-07-24T12:45:33;14.33;;;8.17;;
29984;SDS011;17387;42.690;23.328;2022-07-24T12:48:05;10.40;;;7.70;;
29984;SDS011;17387;42.690;23.328;2022-07-24T12:50:31;14.93;;;7.75;;
29984;SDS011;17387;42.690;23.328;2022-07-24T12:53:06;10.45;;;7.45;;
29984;SDS011;17387;42.690;23.328;2022-07-24T12:55:33;12.38;;;8.43;;
29984;SDS011;17387;42.690;23.328;2022-07-24T12:58:00;12.15;;;8.30;;
29984;SDS011;17387;42.690;23.328;2022-07-24T13:00:27;10.02;;;8.07;;
29984;SDS011;17387;42.690;23.328;2022-07-24T13:02:53;10.73;;;8.00;;
29984;SDS011;17387;42.690;23.328;2022-07-24T13:05:38;12.30;;;8.32;;
29984;SDS011;17387;42.690;23.328;2022-07-24T13:08:05;10.55;;;7.85;;
29984;SDS011;17387;42.690;23.328;2022-07-24T13:10:32;11.43;;;8.00;;
29984;SDS011;17387;42.690;23.328;2022-07-24T13:12:58;13.50;;;8.40;;
29984;SDS011;17387;42.690;23.328;2022-07-24T13:15:23;11.27;;;8.43;;
29984;SDS011;17387;42.690;23.328;2022-07-24T13:17:49;13.02;;;7.85;;
29984;SDS011;17387;42.690;23.328;2022-07-24T13:20:14;10.55;;;7.18;;
29984;SDS011;17387;42.690;23.328;2022-07-24T13:22:39;8.48;;;7.68;;
29984;SDS011;17387;42.690;23.328;2022-07-24T13:25:05;9.55;;;6.97;;
29984;SDS011;17387;42.690;23.328;2022-07-24T13:27:31;9.73;;;7.47;;
29984;SDS011;17387;42.690;23.328;2022-07-24T13:29:56;7.97;;;7.22;;
29984;SDS011;17387;42.690;23.328;2022-07-24T13:32:22;10.73;;;7.82;;
29984;SDS011;17387;42.690;23.328;2022-07-24T13:34:47;15.93;;;7.78;;
29984;SDS011;17387;42.690;23.328;2022-07-24T13:37:13;10.98;;;7.63;;
29984;SDS011;17387;42.690;23.328;2022-07-24T13:39:38;13.95;;;7.55;;
29984;SDS011;17387;42.690;23.328;2022-07-24T13:42:05;9.23;;;7.72;;
29984;SDS011;17387;42.690;23.328;2022-07-24T13:44:31;8.85;;;7.88;;
29984;SDS011;17387;42.690;23.328;2022-07-24T13:46:56;10.90;;;8.60;;
29984;SDS011;17387;42.690;23.328;2022-07-24T13:49:22;13.52;;;8.05;;
29984;SDS011;17387;42.690;23.328;2022-07-24T13:51:48;10.13;;;7.65;;
29984;SDS011;17387;42.690;23.328;2022-07-24T13:54:13;8.38;;;7.57;;
29984;SDS011;17387;42.690;23.328;2022-07-24T13:56:39;12.30;;;7.97;;
29984;SDS011;17387;42.690;23.328;2022-07-24T13:59:04;12.20;;;8.55;;
29984;SDS011;17387;42.690;23.328;2022-07-24T14:01:30;12.18;;;8.63;;
29984;SDS011;17387;42.690;23.328;2022-07-24T14:03:55;9.73;;;8.23;;
29984;SDS011;17387;42.690;23.328;2022-07-24T14:06:21;8.32;;;7.50;;
29984;SDS011;17387;42.690;23.328;2022-07-24T14:08:46;9.70;;;7.15;;
29984;SDS011;17387;42.690;23.328;2022-07-24T14:11:12;15.70;;;7.90;;
29984;SDS011;17387;42.690;23.328;2022-07-24T14:13:37;23.33;;;8.45;;
29984;SDS011;17387;42.690;23.328;2022-07-24T14:16:02;37.03;;;9.50;;
29984;SDS011;17387;42.690;23.328;2022-07-24T14:18:28;27.60;;;9.10;;
29984;SDS011;17387;42.690;23.328;2022-07-24T14:20:54;23.70;;;8.90;;
29984;SDS011;17387;42.690;23.328;2022-07-24T14:23:19;24.80;;;9.43;;
29984;SDS011;17387;42.690;23.328;2022-07-24T14:25:45;12.80;;;8.73;;
29984;SDS011;17387;42.690;23.328;2022-07-24T14:28:11;22.23;;;9.68;;
29984;SDS011;17387;42.690;23.328;2022-07-24T14:30:37;23.75;;;10.40;;
29984;SDS011;17387;42.690;23.328;2022-07-24T14:33:03;15.85;;;10.07;;
29984;SDS011;17387;42.690;23.328;2022-07-24T14:35:28;16.83;;;10.98;;
29984;SDS011;17387;42.690;23.328;2022-07-24T14:37:56;16.30;;;9.85;;
29984;SDS011;17387;42.690;23.328;2022-07-24T14:40:22;15.15;;;9.10;;
29984;SDS011;17387;42.690;23.328;2022-07-24T14:42:47;10.43;;;8.73;;
29984;SDS011;17387;42.690;23.328;2022-07-24T14:45:12;17.27;;;8.77;;
29984;SDS011;17387;42.690;23.328;2022-07-24T14:47:38;10.65;;;9.55;;
29984;SDS011;17387;42.690;23.328;2022-07-24T14:50:05;11.20;;;10.10;;
29984;SDS011;17387;42.690;23.328;2022-07-24T14:52:32;10.75;;;9.65;;
29984;SDS011;17387;42.690;23.328;2022-07-24T14:54:57;12.18;;;10.40;;
29984;SDS011;17387;42.690;23.328;2022-07-24T14:57:24;11.13;;;9.73;;
29984;SDS011;17387;42.690;23.328;2022-07-24T14:59:50;11.43;;;10.32;;
29984;SDS011;17387;42.690;23.328;2022-07-24T15:02:15;13.18;;;10.60;;
29984;SDS011;17387;42.690;23.328;2022-07-24T15:04:41;12.27;;;11.02;;